sensor_id;sensor_type;location;lat;lon;timestamp;P1;durP1;ratioP1;P2;durP2;ratioP2
40162;SDS011;25881;47.462;19.304;2024-03-06T00:02:03;37.80;;;26.52;;
40162;SDS011;25881;47.462;19.304;2024-03-06T00:04:30;35.72;;;25.55;;
40162;SDS011;25881;47.462;19.304;2024-03-06T00:06:56;42.67;;;27.00;;
40162;SDS011;25881;47.462;19.304;2024-03-06T00:09:23;41.70;;;26.17;;
40162;SDS011;25881;47.462;19.304;2024-03-06T00:11:48;37.35;;;25.75;;
40162;SDS011;25881;47.462;19.304;2024-03-06T00:14:15;41.88;;;26.45;;
40162;SDS011;25881;47.462;19.304;2024-03-06T00:16:42;40.28;;;25.55;;
40162;SDS011;25881;47.462;19.304;2024-03-06T00:19:07;38.20;;;26.48;;
40162;SDS011;25881;47.462;19.304;2024-03-06T00:21:32;41.07;;;27.57;;
40162;SDS011;25881;47.462;19.304;2024-03-06T00:23:57;41.17;;;25.80;;
40162;SDS011;25881;47.462;19.304;2024-03-06T00:26:23;39.00;;;26.30;;
40162;SDS011;25881;47.462;19.304;2024-03-06T00:28:48;38.23;;;24.87;;
40162;SDS011;25881;47.462;19.304;2024-03-06T00:31:13;35.73;;;24.47;;
40162;SDS011;25881;47.462;19.304;2024-03-06T00:33:39;37.10;;;23.57;;
40162;SDS011;25881;47.462;19.304;2024-03-06T00:36:05;31.38;;;22.20;;
40162;SDS011;25881;47.462;19.304;2024-03-06T00:38:30;33.38;;;22.23;;
40162;SDS011;25881;47.462;19.304;2024-03-06T00:40:55;32.87;;;22.10;;
40162;SDS011;25881;47.462;19.304;2024-03-06T00:43:22;33.40;;;21.63;;
40162;SDS011;25881;47.462;19.304;2024-03-06T00:45:47;30.27;;;19.40;;
40162;SDS011;25881;47.462;19.304;2024-03-06T00:48:12;30.40;;;20.83;;
40162;SDS011;25881;47.462;19.304;2024-03-06T00:50:38;30.77;;;20.10;;
40162;SDS011;25881;47.462;19.304;2024-03-06T00:53:03;33.73;;;21.70;;
40162;SDS011;25881;47.462;19.304;2024-03-06T00:55:29;32.20;;;20.45;;
40162;SDS011;25881;47.462;19.304;2024-03-06T00:57:54;29.73;;;20.93;;
40162;SDS011;25881;47.462;19.304;2024-03-06T01:00:22;32.58;;;22.08;;
40162;SDS011;25881;47.462;19.304;2024-03-06T01:02:48;30.75;;;19.77;;
40162;SDS011;25881;47.462;19.304;2024-03-06T01:05:13;31.87;;;21.33;;
40162;SDS011;25881;47.462;19.304;2024-03-06T01:07:38;28.05;;;18.83;;
40162;SDS011;25881;47.462;19.304;2024-03-06T01:10:04;29.40;;;19.63;;
40162;SDS011;25881;47.462;19.304;2024-03-06T01:12:31;30.73;;;20.67;;
40162;SDS011;25881;47.462;19.304;2024-03-06T01:14:56;33.13;;;21.38;;
40162;SDS011;25881;47.462;19.304;2024-03-06T01:17:22;31.23;;;20.93;;
40162;SDS011;25881;47.462;19.304;2024-03-06T01:19:47;32.25;;;20.77;;
40162;SDS011;25881;47.462;19.304;2024-03-06T01:22:12;35.20;;;21.07;;
40162;SDS011;25881;47.462;19.304;2024-03-06T01:24:40;31.25;;;20.40;;
40162;SDS011;25881;47.462;19.304;2024-03-06T01:27:06;30.30;;;19.43;;
40162;SDS011;25881;47.462;19.304;2024-03-06T01:29:31;33.92;;;20.90;;
40162;SDS011;25881;47.462;19.304;2024-03-06T01:31:57;28.75;;;19.70;;
40162;SDS011;25881;47.462;19.304;2024-03-06T01:34:22;34.70;;;20.17;;
40162;SDS011;25881;47.462;19.304;2024-03-06T01:36:47;30.55;;;20.67;;
40162;SDS011;25881;47.462;19.304;2024-03-06T01:39:13;30.10;;;20.40;;
40162;SDS011;25881;47.462;19.304;2024-03-06T01:41:44;30.65;;;20.00;;
40162;SDS011;25881;47.462;19.304;2024-03-06T01:44:09;30.27;;;20.55;;
40162;SDS011;25881;47.462;19.304;2024-03-06T01:46:34;29.40;;;19.37;;
40162;SDS011;25881;47.462;19.304;2024-03-06T01:48:59;30.83;;;19.27;;
40162;SDS011;25881;47.462;19.304;2024-03-06T01:51:24;29.00;;;17.73;;
40162;SDS011;25881;47.462;19.304;2024-03-06T01:53:50;24.95;;;16.38;;
40162;SDS011;25881;47.462;19.304;2024-03-06T01:56:16;25.88;;;17.88;;
40162;SDS011;25881;47.462;19.304;2024-03-06T01:58:42;27.70;;;18.02;;
40162;SDS011;25881;47.462;19.304;2024-03-06T02:01:07;30.45;;;17.95;;
40162;SDS011;25881;47.462;19.304;2024-03-06T02:03:33;24.97;;;17.27;;
40162;SDS011;25881;47.462;19.304;2024-03-06T02:05:58;28.52;;;18.25;;
40162;SDS011;25881;47.462;19.304;2024-03-06T02:08:25;26.65;;;19.08;;
40162;SDS011;25881;47.462;19.304;2024-03-06T02:10:50;29.95;;;18.08;;
40162;SDS011;25881;47.462;19.304;2024-03-06T02:13:16;27.00;;;19.37;;
40162;SDS011;25881;47.462;19.304;2024-03-06T02:15:41;27.03;;;17.93;;
40162;SDS011;25881;47.462;19.304;2024-03-06T02:18:06;28.05;;;18.60;;
40162;SDS011;25881;47.462;19.304;2024-03-06T02:20:32;29.38;;;17.70;;
40162;SDS011;25881;47.462;19.304;2024-03-06T02:22:59;25.70;;;17.05;;
40162;SDS011;25881;47.462;19.304;2024-03-06T02:25:24;27.50;;;18.60;;
40162;SDS011;25881;47.462;19.304;2024-03-06T02:27:49;24.73;;;16.67;;
40162;SDS011;25881;47.462;19.304;2024-03-06T02:30:14;23.87;;;16.10;;
40162;SDS011;25881;47.462;19.304;2024-03-06T02:32:40;26.80;;;17.70;;
40162;SDS011;25881;47.462;19.304;2024-03-06T02:35:05;26.60;;;17.63;;
40162;SDS011;25881;47.462;19.304;2024-03-06T02:37:33;26.17;;;18.10;;
40162;SDS011;25881;47.462;19.304;2024-03-06T02:39:58;25.25;;;17.60;;
40162;SDS011;25881;47.462;19.304;2024-03-06T02:42:24;33.05;;;17.88;;
40162;SDS011;25881;47.462;19.304;2024-03-06T02:44:49;25.87;;;17.60;;
40162;SDS011;25881;47.462;19.304;2024-03-06T02:47:15;26.47;;;16.77;;
40162;SDS011;25881;47.462;19.304;2024-03-06T02:49:43;24.15;;;16.33;;
40162;SDS011;25881;47.462;19.304;2024-03-06T02:52:08;24.27;;;17.40;;
40162;SDS011;25881;47.462;19.304;2024-03-06T02:54:33;30.57;;;19.13;;
40162;SDS011;25881;47.462;19.304;2024-03-06T02:56:59;27.98;;;17.33;;
40162;SDS011;25881;47.462;19.304;2024-03-06T02:59:24;24.77;;;16.05;;
40162;SDS011;25881;47.462;19.304;2024-03-06T03:01:50;22.70;;;15.33;;
40162;SDS011;25881;47.462;19.304;2024-03-06T03:04:15;25.77;;;15.63;;
40162;SDS011;25881;47.462;19.304;2024-03-06T03:06:40;24.07;;;16.43;;
40162;SDS011;25881;47.462;19.304;2024-03-06T03:09:05;22.47;;;15.73;;
40162;SDS011;25881;47.462;19.304;2024-03-06T03:11:30;23.87;;;14.00;;
40162;SDS011;25881;47.462;19.304;2024-03-06T03:13:57;22.20;;;14.60;;
40162;SDS011;25881;47.462;19.304;2024-03-06T03:16:22;23.27;;;14.67;;
40162;SDS011;25881;47.462;19.304;2024-03-06T03:18:47;21.87;;;14.20;;
40162;SDS011;25881;47.462;19.304;2024-03-06T03:21:13;23.85;;;15.18;;
40162;SDS011;25881;47.462;19.304;2024-03-06T03:23:38;20.80;;;14.80;;
40162;SDS011;25881;47.462;19.304;2024-03-06T03:26:04;24.08;;;15.52;;
40162;SDS011;25881;47.462;19.304;2024-03-06T03:28:29;25.10;;;16.33;;
40162;SDS011;25881;47.462;19.304;2024-03-06T03:30:55;25.10;;;17.47;;
40162;SDS011;25881;47.462;19.304;2024-03-06T03:33:21;24.85;;;16.35;;
40162;SDS011;25881;47.462;19.304;2024-03-06T03:35:46;25.48;;;16.60;;
40162;SDS011;25881;47.462;19.304;2024-03-06T03:38:11;24.97;;;17.53;;
40162;SDS011;25881;47.462;19.304;2024-03-06T03:40:37;22.50;;;16.17;;
40162;SDS011;25881;47.462;19.304;2024-03-06T03:43:02;24.60;;;15.73;;
40162;SDS011;25881;47.462;19.304;2024-03-06T03:45:31;22.95;;;15.00;;
40162;SDS011;25881;47.462;19.304;2024-03-06T03:47:57;20.08;;;13.73;;
40162;SDS011;25881;47.462;19.304;2024-03-06T03:50:22;21.40;;;14.90;;
40162;SDS011;25881;47.462;19.304;2024-03-06T03:52:47;20.33;;;14.43;;
40162;SDS011;25881;47.462;19.304;2024-03-06T03:55:13;20.83;;;15.33;;
40162;SDS011;25881;47.462;19.304;2024-03-06T03:57:38;22.55;;;14.98;;
40162;SDS011;25881;47.462;19.304;2024-03-06T04:00:03;23.93;;;15.67;;
40162;SDS011;25881;47.462;19.304;2024-03-06T04:02:35;25.35;;;15.70;;
40162;SDS011;25881;47.462;19.304;2024-03-06T04:05:00;21.00;;;13.93;;
40162;SDS011;25881;47.462;19.304;2024-03-06T04:07:26;21.73;;;15.77;;
40162;SDS011;25881;47.462;19.304;2024-03-06T04:09:51;23.77;;;15.43;;
40162;SDS011;25881;47.462;19.304;2024-03-06T04:12:16;23.50;;;15.30;;
40162;SDS011;25881;47.462;19.304;2024-03-06T04:14:41;23.63;;;15.47;;
40162;SDS011;25881;47.462;19.304;2024-03-06T04:17:07;25.27;;;16.30;;
40162;SDS011;25881;47.462;19.304;2024-03-06T04:19:32;23.73;;;16.00;;
40162;SDS011;25881;47.462;19.304;2024-03-06T04:22:00;27.15;;;17.10;;
40162;SDS011;25881;47.462;19.304;2024-03-06T04:24:25;29.83;;;19.07;;
40162;SDS011;25881;47.462;19.304;2024-03-06T04:26:51;33.15;;;19.33;;
40162;SDS011;25881;47.462;19.304;2024-03-06T04:29:16;32.30;;;18.53;;
40162;SDS011;25881;47.462;19.304;2024-03-06T04:31:42;31.40;;;18.75;;
40162;SDS011;25881;47.462;19.304;2024-03-06T04:34:07;30.05;;;19.73;;
40162;SDS011;25881;47.462;19.304;2024-03-06T04:36:33;31.10;;;20.90;;
40162;SDS011;25881;47.462;19.304;2024-03-06T04:38:58;33.60;;;21.13;;
40162;SDS011;25881;47.462;19.304;2024-03-06T04:41:23;33.57;;;20.93;;
40162;SDS011;25881;47.462;19.304;2024-03-06T04:43:48;36.17;;;21.27;;
40162;SDS011;25881;47.462;19.304;2024-03-06T04:46:15;30.67;;;21.50;;
40162;SDS011;25881;47.462;19.304;2024-03-06T04:48:40;32.55;;;20.65;;
40162;SDS011;25881;47.462;19.304;2024-03-06T04:51:06;34.80;;;21.47;;
40162;SDS011;25881;47.462;19.304;2024-03-06T04:53:31;34.00;;;22.17;;
40162;SDS011;25881;47.462;19.304;2024-03-06T04:55:56;34.60;;;21.43;;
40162;SDS011;25881;47.462;19.304;2024-03-06T04:58:21;28.40;;;18.63;;
40162;SDS011;25881;47.462;19.304;2024-03-06T05:00:46;28.33;;;18.17;;
40162;SDS011;25881;47.462;19.304;2024-03-06T05:03:12;32.20;;;19.43;;
40162;SDS011;25881;47.462;19.304;2024-03-06T05:05:37;30.88;;;18.83;;
40162;SDS011;25881;47.462;19.304;2024-03-06T05:08:03;30.52;;;19.45;;
40162;SDS011;25881;47.462;19.304;2024-03-06T05:10:28;31.75;;;18.85;;
40162;SDS011;25881;47.462;19.304;2024-03-06T05:12:54;26.20;;;18.47;;
40162;SDS011;25881;47.462;19.304;2024-03-06T05:15:19;26.50;;;17.97;;
40162;SDS011;25881;47.462;19.304;2024-03-06T05:17:44;28.20;;;18.92;;
40162;SDS011;25881;47.462;19.304;2024-03-06T05:20:10;30.20;;;18.67;;
40162;SDS011;25881;47.462;19.304;2024-03-06T05:22:35;30.02;;;19.02;;
40162;SDS011;25881;47.462;19.304;2024-03-06T05:25:00;29.57;;;18.80;;
40162;SDS011;25881;47.462;19.304;2024-03-06T05:27:26;28.20;;;17.92;;
40162;SDS011;25881;47.462;19.304;2024-03-06T05:29:51;27.83;;;17.42;;
40162;SDS011;25881;47.462;19.304;2024-03-06T05:32:17;25.83;;;17.60;;
40162;SDS011;25881;47.462;19.304;2024-03-06T05:34:42;31.30;;;19.20;;
40162;SDS011;25881;47.462;19.304;2024-03-06T05:37:07;31.10;;;19.13;;
40162;SDS011;25881;47.462;19.304;2024-03-06T05:39:32;28.30;;;18.60;;
40162;SDS011;25881;47.462;19.304;2024-03-06T05:42:02;28.40;;;17.48;;
40162;SDS011;25881;47.462;19.304;2024-03-06T05:44:28;32.15;;;20.23;;
40162;SDS011;25881;47.462;19.304;2024-03-06T05:46:53;35.95;;;21.70;;
40162;SDS011;25881;47.462;19.304;2024-03-06T05:49:18;39.93;;;23.80;;
40162;SDS011;25881;47.462;19.304;2024-03-06T05:51:44;39.47;;;25.10;;
40162;SDS011;25881;47.462;19.304;2024-03-06T05:54:10;40.55;;;25.95;;
40162;SDS011;25881;47.462;19.304;2024-03-06T05:56:35;37.40;;;23.33;;
40162;SDS011;25881;47.462;19.304;2024-03-06T05:59:01;39.83;;;25.07;;
40162;SDS011;25881;47.462;19.304;2024-03-06T06:01:30;34.10;;;23.48;;
40162;SDS011;25881;47.462;19.304;2024-03-06T06:03:55;37.00;;;24.48;;
40162;SDS011;25881;47.462;19.304;2024-03-06T06:06:20;37.53;;;23.60;;
40162;SDS011;25881;47.462;19.304;2024-03-06T06:08:45;41.07;;;26.80;;
40162;SDS011;25881;47.462;19.304;2024-03-06T06:11:11;40.33;;;27.10;;
40162;SDS011;25881;47.462;19.304;2024-03-06T06:13:36;41.17;;;28.65;;
40162;SDS011;25881;47.462;19.304;2024-03-06T06:16:02;40.72;;;24.80;;
40162;SDS011;25881;47.462;19.304;2024-03-06T06:18:29;33.58;;;22.45;;
40162;SDS011;25881;47.462;19.304;2024-03-06T06:20:56;34.67;;;21.92;;
40162;SDS011;25881;47.462;19.304;2024-03-06T06:23:22;32.65;;;20.88;;
40162;SDS011;25881;47.462;19.304;2024-03-06T06:25:47;33.22;;;21.48;;
40162;SDS011;25881;47.462;19.304;2024-03-06T06:28:12;33.17;;;21.50;;
40162;SDS011;25881;47.462;19.304;2024-03-06T06:30:37;44.13;;;23.63;;
40162;SDS011;25881;47.462;19.304;2024-03-06T06:35:31;40.28;;;22.30;;
40162;SDS011;25881;47.462;19.304;2024-03-06T06:37:57;36.08;;;22.40;;
40162;SDS011;25881;47.462;19.304;2024-03-06T06:40:22;34.63;;;21.83;;
40162;SDS011;25881;47.462;19.304;2024-03-06T06:42:48;29.48;;;19.67;;
40162;SDS011;25881;47.462;19.304;2024-03-06T06:45:17;29.77;;;18.40;;
40162;SDS011;25881;47.462;19.304;2024-03-06T06:47:42;26.90;;;18.13;;
40162;SDS011;25881;47.462;19.304;2024-03-06T06:50:08;27.63;;;18.65;;
40162;SDS011;25881;47.462;19.304;2024-03-06T06:52:34;30.08;;;17.27;;
40162;SDS011;25881;47.462;19.304;2024-03-06T06:54:59;28.73;;;17.48;;
40162;SDS011;25881;47.462;19.304;2024-03-06T06:57:24;23.70;;;16.42;;
40162;SDS011;25881;47.462;19.304;2024-03-06T06:59:50;28.07;;;17.90;;
40162;SDS011;25881;47.462;19.304;2024-03-06T07:02:15;24.43;;;16.63;;
40162;SDS011;25881;47.462;19.304;2024-03-06T07:04:40;26.77;;;17.57;;
40162;SDS011;25881;47.462;19.304;2024-03-06T07:07:05;26.37;;;16.73;;
40162;SDS011;25881;47.462;19.304;2024-03-06T07:09:30;26.50;;;16.93;;
40162;SDS011;25881;47.462;19.304;2024-03-06T07:11:56;27.07;;;16.50;;
40162;SDS011;25881;47.462;19.304;2024-03-06T07:14:21;26.70;;;16.60;;
40162;SDS011;25881;47.462;19.304;2024-03-06T07:16:46;29.90;;;15.77;;
40162;SDS011;25881;47.462;19.304;2024-03-06T07:19:12;24.13;;;14.80;;
40162;SDS011;25881;47.462;19.304;2024-03-06T07:21:37;23.65;;;14.88;;
40162;SDS011;25881;47.462;19.304;2024-03-06T07:24:03;24.00;;;15.40;;
40162;SDS011;25881;47.462;19.304;2024-03-06T07:26:29;24.50;;;14.65;;
40162;SDS011;25881;47.462;19.304;2024-03-06T07:28:55;22.75;;;15.45;;
40162;SDS011;25881;47.462;19.304;2024-03-06T07:31:20;26.40;;;15.88;;
40162;SDS011;25881;47.462;19.304;2024-03-06T07:33:45;23.20;;;15.47;;
40162;SDS011;25881;47.462;19.304;2024-03-06T07:36:10;23.90;;;13.93;;
40162;SDS011;25881;47.462;19.304;2024-03-06T07:38:36;18.67;;;12.63;;
40162;SDS011;25881;47.462;19.304;2024-03-06T07:41:01;23.77;;;14.33;;
40162;SDS011;25881;47.462;19.304;2024-03-06T07:43:26;25.83;;;13.32;;
40162;SDS011;25881;47.462;19.304;2024-03-06T07:45:52;21.23;;;13.73;;
40162;SDS011;25881;47.462;19.304;2024-03-06T07:48:17;18.23;;;12.15;;
40162;SDS011;25881;47.462;19.304;2024-03-06T07:50:42;19.63;;;13.87;;
40162;SDS011;25881;47.462;19.304;2024-03-06T07:53:07;21.33;;;13.35;;
40162;SDS011;25881;47.462;19.304;2024-03-06T07:55:33;19.33;;;12.57;;
40162;SDS011;25881;47.462;19.304;2024-03-06T07:57:58;21.03;;;12.77;;
40162;SDS011;25881;47.462;19.304;2024-03-06T08:00:23;18.50;;;12.73;;
40162;SDS011;25881;47.462;19.304;2024-03-06T08:02:48;16.13;;;12.27;;
40162;SDS011;25881;47.462;19.304;2024-03-06T08:05:17;17.10;;;12.63;;
40162;SDS011;25881;47.462;19.304;2024-03-06T08:07:42;18.23;;;13.27;;
40162;SDS011;25881;47.462;19.304;2024-03-06T08:10:08;19.93;;;13.90;;
40162;SDS011;25881;47.462;19.304;2024-03-06T08:12:34;39.42;;;24.80;;
40162;SDS011;25881;47.462;19.304;2024-03-06T08:14:59;42.53;;;25.75;;
40162;SDS011;25881;47.462;19.304;2024-03-06T08:17:26;32.45;;;21.77;;
40162;SDS011;25881;47.462;19.304;2024-03-06T08:19:51;23.53;;;15.27;;
40162;SDS011;25881;47.462;19.304;2024-03-06T08:22:17;30.60;;;20.10;;
40162;SDS011;25881;47.462;19.304;2024-03-06T08:24:42;26.67;;;17.47;;
40162;SDS011;25881;47.462;19.304;2024-03-06T08:27:07;27.93;;;18.10;;
40162;SDS011;25881;47.462;19.304;2024-03-06T08:29:32;25.37;;;17.13;;
40162;SDS011;25881;47.462;19.304;2024-03-06T08:31:57;62.20;;;24.90;;
40162;SDS011;25881;47.462;19.304;2024-03-06T08:34:24;28.58;;;19.90;;
40162;SDS011;25881;47.462;19.304;2024-03-06T08:36:50;28.47;;;18.80;;
40162;SDS011;25881;47.462;19.304;2024-03-06T08:39:15;33.97;;;19.80;;
40162;SDS011;25881;47.462;19.304;2024-03-06T08:41:41;29.42;;;19.05;;
40162;SDS011;25881;47.462;19.304;2024-03-06T08:44:07;33.50;;;20.45;;
40162;SDS011;25881;47.462;19.304;2024-03-06T08:46:32;31.67;;;21.90;;
40162;SDS011;25881;47.462;19.304;2024-03-06T08:48:58;36.40;;;21.70;;
40162;SDS011;25881;47.462;19.304;2024-03-06T08:51:23;28.38;;;19.67;;
40162;SDS011;25881;47.462;19.304;2024-03-06T08:53:48;30.70;;;19.57;;
40162;SDS011;25881;47.462;19.304;2024-03-06T08:56:14;30.60;;;18.57;;
40162;SDS011;25881;47.462;19.304;2024-03-06T08:58:40;29.13;;;18.77;;
40162;SDS011;25881;47.462;19.304;2024-03-06T09:01:05;28.43;;;18.37;;
40162;SDS011;25881;47.462;19.304;2024-03-06T09:03:30;23.60;;;16.23;;
40162;SDS011;25881;47.462;19.304;2024-03-06T09:05:56;26.83;;;16.88;;
40162;SDS011;25881;47.462;19.304;2024-03-06T09:08:21;31.58;;;17.67;;
40162;SDS011;25881;47.462;19.304;2024-03-06T09:10:47;25.73;;;16.42;;
40162;SDS011;25881;47.462;19.304;2024-03-06T09:13:12;26.33;;;15.97;;
40162;SDS011;25881;47.462;19.304;2024-03-06T09:15:37;25.93;;;15.40;;
40162;SDS011;25881;47.462;19.304;2024-03-06T09:18:02;22.77;;;13.93;;
40162;SDS011;25881;47.462;19.304;2024-03-06T09:20:28;22.20;;;14.43;;
40162;SDS011;25881;47.462;19.304;2024-03-06T09:22:55;24.83;;;15.00;;
40162;SDS011;25881;47.462;19.304;2024-03-06T09:25:21;23.13;;;13.02;;
40162;SDS011;25881;47.462;19.304;2024-03-06T09:27:47;17.63;;;12.63;;
40162;SDS011;25881;47.462;19.304;2024-03-06T09:30:12;24.33;;;14.13;;
40162;SDS011;25881;47.462;19.304;2024-03-06T09:32:38;16.30;;;11.57;;
40162;SDS011;25881;47.462;19.304;2024-03-06T09:35:04;20.67;;;14.20;;
40162;SDS011;25881;47.462;19.304;2024-03-06T09:37:30;19.60;;;12.88;;
40162;SDS011;25881;47.462;19.304;2024-03-06T09:39:55;29.42;;;14.13;;
40162;SDS011;25881;47.462;19.304;2024-03-06T09:42:21;19.35;;;13.65;;
40162;SDS011;25881;47.462;19.304;2024-03-06T09:44:47;20.23;;;12.63;;
40162;SDS011;25881;47.462;19.304;2024-03-06T09:47:13;27.42;;;14.90;;
40162;SDS011;25881;47.462;19.304;2024-03-06T09:49:39;22.25;;;14.48;;
40162;SDS011;25881;47.462;19.304;2024-03-06T09:52:05;25.13;;;15.85;;
40162;SDS011;25881;47.462;19.304;2024-03-06T09:54:30;24.95;;;14.82;;
40162;SDS011;25881;47.462;19.304;2024-03-06T09:56:56;20.43;;;13.90;;
40162;SDS011;25881;47.462;19.304;2024-03-06T09:59:22;20.15;;;14.07;;
40162;SDS011;25881;47.462;19.304;2024-03-06T10:01:54;21.95;;;13.52;;
40162;SDS011;25881;47.462;19.304;2024-03-06T10:04:20;21.38;;;14.05;;
40162;SDS011;25881;47.462;19.304;2024-03-06T10:06:46;22.45;;;13.68;;
40162;SDS011;25881;47.462;19.304;2024-03-06T10:09:11;19.80;;;13.53;;
40162;SDS011;25881;47.462;19.304;2024-03-06T10:11:40;23.30;;;14.00;;
40162;SDS011;25881;47.462;19.304;2024-03-06T10:16:30;27.80;;;17.17;;
40162;SDS011;25881;47.462;19.304;2024-03-06T10:18:55;26.87;;;16.97;;
40162;SDS011;25881;47.462;19.304;2024-03-06T10:21:29;23.80;;;16.63;;
40162;SDS011;25881;47.462;19.304;2024-03-06T10:23:57;27.30;;;15.98;;
40162;SDS011;25881;47.462;19.304;2024-03-06T10:26:24;24.73;;;16.42;;
40162;SDS011;25881;47.462;19.304;2024-03-06T10:28:49;23.77;;;15.43;;
40162;SDS011;25881;47.462;19.304;2024-03-06T10:31:26;26.98;;;15.80;;
40162;SDS011;25881;47.462;19.304;2024-03-06T10:33:51;23.23;;;14.60;;
40162;SDS011;25881;47.462;19.304;2024-03-06T10:36:18;20.30;;;13.50;;
40162;SDS011;25881;47.462;19.304;2024-03-06T10:38:43;17.57;;;12.17;;
40162;SDS011;25881;47.462;19.304;2024-03-06T10:41:08;20.95;;;12.55;;
40162;SDS011;25881;47.462;19.304;2024-03-06T10:43:38;23.05;;;13.23;;
40162;SDS011;25881;47.462;19.304;2024-03-06T10:46:05;22.65;;;14.23;;
40162;SDS011;25881;47.462;19.304;2024-03-06T10:48:31;25.40;;;15.95;;
40162;SDS011;25881;47.462;19.304;2024-03-06T10:50:56;26.92;;;14.77;;
40162;SDS011;25881;47.462;19.304;2024-03-06T10:53:22;22.33;;;14.18;;
40162;SDS011;25881;47.462;19.304;2024-03-06T10:55:51;21.10;;;13.60;;
40162;SDS011;25881;47.462;19.304;2024-03-06T10:58:16;22.38;;;14.23;;
40162;SDS011;25881;47.462;19.304;2024-03-06T11:00:47;20.38;;;13.18;;
40162;SDS011;25881;47.462;19.304;2024-03-06T11:03:12;19.95;;;14.18;;
40162;SDS011;25881;47.462;19.304;2024-03-06T11:05:38;19.38;;;12.10;;
40162;SDS011;25881;47.462;19.304;2024-03-06T11:08:05;20.42;;;11.93;;
40162;SDS011;25881;47.462;19.304;2024-03-06T11:10:33;20.27;;;11.30;;
40162;SDS011;25881;47.462;19.304;2024-03-06T11:12:58;21.85;;;9.02;;
40162;SDS011;25881;47.462;19.304;2024-03-06T11:15:24;17.33;;;10.02;;
40162;SDS011;25881;47.462;19.304;2024-03-06T11:17:49;13.05;;;9.15;;
40162;SDS011;25881;47.462;19.304;2024-03-06T11:20:17;17.27;;;10.07;;
40162;SDS011;25881;47.462;19.304;2024-03-06T11:28:07;17.92;;;10.40;;
40162;SDS011;25881;47.462;19.304;2024-03-06T11:30:34;17.08;;;9.65;;
40162;SDS011;25881;47.462;19.304;2024-03-06T11:33:11;16.40;;;10.82;;
40162;SDS011;25881;47.462;19.304;2024-03-06T11:35:37;16.45;;;11.13;;
40162;SDS011;25881;47.462;19.304;2024-03-06T11:38:04;18.90;;;10.52;;
40162;SDS011;25881;47.462;19.304;2024-03-06T11:40:31;18.00;;;12.13;;
40162;SDS011;25881;47.462;19.304;2024-03-06T11:42:56;17.33;;;11.37;;
40162;SDS011;25881;47.462;19.304;2024-03-06T11:45:22;14.10;;;10.20;;
40162;SDS011;25881;47.462;19.304;2024-03-06T11:47:59;18.90;;;11.02;;
40162;SDS011;25881;47.462;19.304;2024-03-06T11:50:28;17.90;;;9.77;;
40162;SDS011;25881;47.462;19.304;2024-03-06T11:52:56;20.88;;;11.00;;
40162;SDS011;25881;47.462;19.304;2024-03-06T11:55:22;18.35;;;11.10;;
40162;SDS011;25881;47.462;19.304;2024-03-06T11:57:47;16.17;;;10.38;;
40162;SDS011;25881;47.462;19.304;2024-03-06T12:00:13;18.03;;;10.90;;
40162;SDS011;25881;47.462;19.304;2024-03-06T12:02:38;16.58;;;10.40;;
40162;SDS011;25881;47.462;19.304;2024-03-06T12:05:04;22.48;;;10.52;;
40162;SDS011;25881;47.462;19.304;2024-03-06T12:07:30;17.90;;;10.48;;
40162;SDS011;25881;47.462;19.304;2024-03-06T12:09:57;16.00;;;10.80;;
40162;SDS011;25881;47.462;19.304;2024-03-06T12:12:22;17.00;;;10.90;;
40162;SDS011;25881;47.462;19.304;2024-03-06T12:14:59;21.07;;;12.27;;
40162;SDS011;25881;47.462;19.304;2024-03-06T12:17:29;17.67;;;10.52;;
40162;SDS011;25881;47.462;19.304;2024-03-06T12:19:54;19.15;;;12.20;;
40162;SDS011;25881;47.462;19.304;2024-03-06T12:22:24;19.25;;;11.95;;
40162;SDS011;25881;47.462;19.304;2024-03-06T12:24:58;18.20;;;10.85;;
40162;SDS011;25881;47.462;19.304;2024-03-06T12:27:23;17.85;;;11.25;;
40162;SDS011;25881;47.462;19.304;2024-03-06T12:29:52;18.17;;;10.80;;
40162;SDS011;25881;47.462;19.304;2024-03-06T12:32:17;18.75;;;10.45;;
40162;SDS011;25881;47.462;19.304;2024-03-06T12:34:43;19.58;;;11.30;;
40162;SDS011;25881;47.462;19.304;2024-03-06T12:37:11;19.23;;;10.40;;
40162;SDS011;25881;47.462;19.304;2024-03-06T12:39:36;17.27;;;10.88;;
40162;SDS011;25881;47.462;19.304;2024-03-06T12:42:01;16.30;;;11.03;;
40162;SDS011;25881;47.462;19.304;2024-03-06T12:44:26;19.13;;;10.47;;
40162;SDS011;25881;47.462;19.304;2024-03-06T12:46:52;14.30;;;10.80;;
40162;SDS011;25881;47.462;19.304;2024-03-06T12:49:17;19.33;;;11.10;;
40162;SDS011;25881;47.462;19.304;2024-03-06T12:51:43;16.95;;;10.80;;
40162;SDS011;25881;47.462;19.304;2024-03-06T12:54:09;17.73;;;10.40;;
40162;SDS011;25881;47.462;19.304;2024-03-06T12:56:34;15.80;;;10.68;;
40162;SDS011;25881;47.462;19.304;2024-03-06T12:58:59;16.97;;;9.60;;
40162;SDS011;25881;47.462;19.304;2024-03-06T13:01:24;18.80;;;9.70;;
40162;SDS011;25881;47.462;19.304;2024-03-06T13:03:49;15.40;;;9.43;;
40162;SDS011;25881;47.462;19.304;2024-03-06T13:06:15;18.70;;;9.53;;
40162;SDS011;25881;47.462;19.304;2024-03-06T13:08:40;14.45;;;9.25;;
40162;SDS011;25881;47.462;19.304;2024-03-06T13:11:05;15.40;;;9.90;;
40162;SDS011;25881;47.462;19.304;2024-03-06T13:13:30;16.10;;;10.53;;
40162;SDS011;25881;47.462;19.304;2024-03-06T13:15:58;17.10;;;10.85;;
40162;SDS011;25881;47.462;19.304;2024-03-06T13:18:24;19.00;;;10.75;;
40162;SDS011;25881;47.462;19.304;2024-03-06T13:20:50;21.65;;;10.23;;
40162;SDS011;25881;47.462;19.304;2024-03-06T13:23:15;19.45;;;9.57;;
40162;SDS011;25881;47.462;19.304;2024-03-06T13:25:41;16.08;;;9.82;;
40162;SDS011;25881;47.462;19.304;2024-03-06T13:28:06;15.80;;;9.03;;
40162;SDS011;25881;47.462;19.304;2024-03-06T13:30:31;15.88;;;9.70;;
40162;SDS011;25881;47.462;19.304;2024-03-06T13:32:57;16.83;;;10.63;;
40162;SDS011;25881;47.462;19.304;2024-03-06T13:35:23;13.55;;;10.23;;
40162;SDS011;25881;47.462;19.304;2024-03-06T13:37:48;16.20;;;10.97;;
40162;SDS011;25881;47.462;19.304;2024-03-06T13:40:14;18.25;;;9.77;;
40162;SDS011;25881;47.462;19.304;2024-03-06T13:42:39;19.73;;;11.50;;
40162;SDS011;25881;47.462;19.304;2024-03-06T13:45:06;17.45;;;10.18;;
40162;SDS011;25881;47.462;19.304;2024-03-06T13:47:36;13.55;;;10.07;;
40162;SDS011;25881;47.462;19.304;2024-03-06T13:50:01;13.95;;;9.43;;
40162;SDS011;25881;47.462;19.304;2024-03-06T13:52:27;19.30;;;10.30;;
40162;SDS011;25881;47.462;19.304;2024-03-06T13:54:52;17.40;;;10.67;;
40162;SDS011;25881;47.462;19.304;2024-03-06T13:57:17;16.23;;;10.10;;
40162;SDS011;25881;47.462;19.304;2024-03-06T13:59:42;16.00;;;9.70;;
40162;SDS011;25881;47.462;19.304;2024-03-06T14:02:08;16.87;;;9.27;;
40162;SDS011;25881;47.462;19.304;2024-03-06T14:04:33;17.60;;;10.13;;
40162;SDS011;25881;47.462;19.304;2024-03-06T14:06:58;15.60;;;9.88;;
40162;SDS011;25881;47.462;19.304;2024-03-06T14:09:24;19.05;;;9.48;;
40162;SDS011;25881;47.462;19.304;2024-03-06T14:11:50;16.25;;;9.60;;